Jensen Beach, Florida
Current Conditions -  °F | °C
As of 8:47 AM on Sunday 25 Jan 2015 (Local Time) from KSUA Reporting Station
Few Clouds Few Clouds  
Wind Chill: 50°   Ceiling: Unl
Heat Index: 50°   Visibility: 7mi
Dew Point: 39°   Wind: 10mph
Humidity: 66%   Direction: 330°NNW
Pressure: 30.12"   Gusts: NA
Location:  27.26°N, 80.23°W
Report Text: KSUA 251347Z 33009KT 7SM FEW030 10/04 A3012
Loading
Personal Weather Stations






























Interactive Weather Map New forecast layout! Learn more

10-Day Weather Forecast

Advertisements
Track Severe Weather on mobile